Time;durP1;ratioP1;P1;durP2;ratioP2;P2;SDS_P1;SDS_P2;PMS_P1;PMS_P2;Temp;Humidity;BMP_temperature;BMP_pressure;BME280_temperature;BME280_humidity;BME280_pressure;Samples;Min_cycle;Max_cycle;Signal;HPM_P1;HPM_P2
2022/07/16 00:03:48;;;;;;;;;;;16.60;99.90;;;;;;5015621;28;19925;-75
2022/07/16 00:06:14;;;;;;;;;;;16.60;99.90;;;;;;4998931;28;19972;-75
2022/07/16 00:08:39;;;;;;;;;;;16.50;99.90;;;;;;5009041;28;19929;-74
2022/07/16 00:11:05;;;;;;;;;;;16.50;99.90;;;;;;5010582;28;19917;-74
2022/07/16 00:13:30;;;;;;;;;;;16.40;99.90;;;;;;5006407;28;20016;-74
2022/07/16 00:15:56;;;;;;;;;;;16.40;99.90;;;;;;5016630;28;19929;-75
2022/07/16 00:21:06;;;;;;;;;;;16.30;99.90;;;;;;5010789;28;19920;-74
2022/07/16 00:23:31;;;;;;;;;;;16.20;99.90;;;;;;5016650;28;19916;-73
2022/07/16 00:25:57;;;;;;;;;;;16.20;99.90;;;;;;5026513;28;19952;-74
2022/07/16 00:28:23;;;;;;;;;;;16.20;99.90;;;;;;5011058;28;19916;-74
2022/07/16 00:30:48;;;;;;;;;;;16.20;99.90;;;;;;5028827;28;19927;-74
2022/07/16 00:33:14;;;;;;;;;;;16.20;99.90;;;;;;5000268;28;19931;-73
2022/07/16 00:35:39;;;;;;;;;;;16.10;99.90;;;;;;4998426;28;20012;-73
2022/07/16 00:38:07;;;;;;;;;;;16.20;99.90;;;;;;5012940;28;19917;-74
2022/07/16 00:40:32;;;;;;;;;;;16.20;99.90;;;;;;4997246;28;19925;-74
2022/07/16 00:42:59;;;;;;;;;;;16.10;99.90;;;;;;5009888;28;19916;-74
2022/07/16 00:45:25;;;;;;;;;;;16.10;99.90;;;;;;5012037;28;19917;-73
2022/07/16 00:47:50;;;;;;;;;;;16.10;99.90;;;;;;4996820;28;19917;-73
2022/07/16 00:50:16;;;;;;;;;;;16.10;99.90;;;;;;5019996;28;19921;-73
2022/07/16 00:52:42;;;;;;;;;;;16.10;99.90;;;;;;5016082;28;20379;-73
2022/07/16 00:55:07;;;;;;;;;;;16.10;99.90;;;;;;5013961;28;19928;-73
2022/07/16 00:57:33;;;;;;;;;;;16.20;99.90;;;;;;5014904;28;19917;-74
2022/07/16 00:59:59;;;;;;;;;;;16.10;99.90;;;;;;5018548;28;19963;-73
2022/07/16 01:02:24;;;;;;;;;;;16.20;99.90;;;;;;5013159;28;19917;-73
2022/07/16 01:04:50;;;;;;;;;;;16.20;99.90;;;;;;5012430;28;19921;-73
2022/07/16 01:07:16;;;;;;;;;;;16.20;99.90;;;;;;5010310;28;19916;-73
2022/07/16 01:09:42;;;;;;;;;;;16.30;99.90;;;;;;5011629;28;20015;-73
2022/07/16 01:12:08;;;;;;;;;;;16.30;99.90;;;;;;5007762;28;19950;-73
2022/07/16 01:14:34;;;;;;;;;;;16.20;99.90;;;;;;5011204;28;19944;-74
2022/07/16 01:16:59;;;;;;;;;;;16.70;99.90;;;;;;5015069;28;19925;-73
2022/07/16 01:19:25;;;;;;;;;;;16.30;99.90;;;;;;5014848;28;19921;-73
2022/07/16 01:21:50;;;;;;;;;;;16.40;99.90;;;;;;5025504;28;19925;-73
2022/07/16 01:24:16;;;;;;;;;;;16.30;99.90;;;;;;4998443;28;19917;-73
2022/07/16 01:26:42;;;;;;;;;;;16.40;99.90;;;;;;5026601;28;19925;-74
2022/07/16 01:29:07;;;;;;;;;;;16.40;99.90;;;;;;5015786;28;19929;-74
2022/07/16 01:31:33;;;;;;;;;;;16.40;99.90;;;;;;5016039;28;19923;-74
2022/07/16 01:36:51;;;;;;;;;;;16.40;99.90;;;;;;5019152;28;20287;-74
2022/07/16 01:39:17;;;;;;;;;;;16.50;99.90;;;;;;5012431;28;20439;-74
2022/07/16 01:41:48;;;;;;;;;;;16.50;99.90;;;;;;5015477;28;19917;-73
2022/07/16 01:44:14;;;;;;;;;;;16.50;99.90;;;;;;5013103;28;20455;-74
2022/07/16 01:46:39;;;;;;;;;;;16.40;99.90;;;;;;5014000;28;19951;-73
2022/07/16 01:49:05;;;;;;;;;;;16.40;99.90;;;;;;5011237;28;19917;-74
2022/07/16 01:51:30;;;;;;;;;;;16.60;99.90;;;;;;5014187;28;19916;-74
2022/07/16 01:53:56;;;;;;;;;;;16.40;99.90;;;;;;5013682;28;19920;-74
2022/07/16 01:56:21;;;;;;;;;;;16.40;99.90;;;;;;5026411;28;19925;-74
2022/07/16 01:58:47;;;;;;;;;;;16.30;99.90;;;;;;5020910;28;19924;-74
2022/07/16 02:01:12;;;;;;;;;;;16.30;99.90;;;;;;5028536;28;19921;-74
2022/07/16 02:03:38;;;;;;;;;;;16.30;99.90;;;;;;5012789;28;19917;-74
2022/07/16 02:06:03;;;;;;;;;;;16.30;99.90;;;;;;5015713;28;19916;-74
2022/07/16 02:08:29;;;;;;;;;;;16.30;99.90;;;;;;5008394;28;19925;-74
2022/07/16 02:10:54;;;;;;;;;;;16.30;99.90;;;;;;5010133;28;20471;-74
2022/07/16 02:13:20;;;;;;;;;;;16.40;99.90;;;;;;5014908;28;19921;-74
2022/07/16 02:15:46;;;;;;;;;;;16.30;99.90;;;;;;5019431;28;19921;-74
2022/07/16 02:18:11;;;;;;;;;;;16.30;99.90;;;;;;5014978;28;20367;-74
2022/07/16 02:20:37;;;;;;;;;;;16.30;99.90;;;;;;5016167;28;20475;-74
2022/07/16 02:23:02;;;;;;;;;;;16.30;99.90;;;;;;5015298;28;20423;-74
2022/07/16 02:25:28;;;;;;;;;;;16.30;99.90;;;;;;5009045;28;20449;-74
2022/07/16 02:28:06;;;;;;;;;;;16.30;99.90;;;;;;5012502;28;20375;-74
2022/07/16 02:30:32;;;;;;;;;;;16.30;99.90;;;;;;5001172;28;19924;-74
2022/07/16 02:32:57;;;;;;;;;;;16.30;99.90;;;;;;5010549;28;19921;-74
2022/07/16 02:35:23;;;;;;;;;;;16.30;99.90;;;;;;5022951;28;20410;-74
2022/07/16 02:37:49;;;;;;;;;;;16.20;99.90;;;;;;5002471;28;20384;-74
2022/07/16 02:40:15;;;;;;;;;;;16.20;99.90;;;;;;5020968;28;20009;-74
2022/07/16 02:42:40;;;;;;;;;;;16.30;99.90;;;;;;5023998;28;20439;-74
2022/07/16 02:45:07;;;;;;;;;;;16.20;99.90;;;;;;5008571;28;19925;-74
2022/07/16 02:47:33;;;;;;;;;;;16.30;99.90;;;;;;5015840;28;19917;-74
2022/07/16 02:49:59;;;;;;;;;;;16.20;99.90;;;;;;5014529;28;19964;-74
2022/07/16 02:52:24;;;;;;;;;;;16.20;99.90;;;;;;5007060;28;20354;-74
2022/07/16 02:54:50;;;;;;;;;;;16.20;99.90;;;;;;5014555;28;20280;-74
2022/07/16 02:57:16;;;;;;;;;;;16.20;99.90;;;;;;5008946;28;20303;-75
2022/07/16 02:59:41;;;;;;;;;;;16.20;99.90;;;;;;5008935;28;20036;-74
2022/07/16 03:02:07;;;;;;;;;;;16.20;99.90;;;;;;4996452;28;19928;-74
2022/07/16 03:04:32;;;;;;;;;;;16.10;99.90;;;;;;5013877;28;20306;-75
2022/07/16 03:06:58;;;;;;;;;;;16.10;99.90;;;;;;4999222;28;20028;-75
2022/07/16 03:09:23;;;;;;;;;;;16.10;99.90;;;;;;5012044;28;20053;-74
2022/07/16 03:11:49;;;;;;;;;;;16.10;99.90;;;;;;5010779;28;19929;-73
2022/07/16 03:14:15;;;;;;;;;;;16.10;99.90;;;;;;5013999;28;19931;-74
2022/07/16 03:16:41;;;;;;;;;;;16.00;99.90;;;;;;5022964;28;20004;-75
2022/07/16 03:19:07;;;;;;;;;;;16.00;99.90;;;;;;5015733;28;20021;-75
2022/07/16 03:21:32;;;;;;;;;;;16.00;99.90;;;;;;5013318;28;19921;-75
2022/07/16 03:23:58;;;;;;;;;;;16.00;99.90;;;;;;5011329;28;19921;-74
2022/07/16 03:26:23;;;;;;;;;;;16.00;99.90;;;;;;5010384;28;19923;-75
2022/07/16 03:28:49;;;;;;;;;;;16.00;99.90;;;;;;5012394;28;19979;-74
2022/07/16 03:31:17;;;;;;;;;;;16.00;99.90;;;;;;5015123;28;19917;-74
2022/07/16 03:33:43;;;;;;;;;;;16.00;99.90;;;;;;5012419;28;19925;-74
2022/07/16 03:36:09;;;;;;;;;;;16.00;99.90;;;;;;5013289;28;19921;-74
2022/07/16 03:41:19;;;;;;;;;;;15.90;99.90;;;;;;5011981;28;19932;-75
2022/07/16 03:43:44;;;;;;;;;;;16.00;99.90;;;;;;5025632;28;19917;-74
2022/07/16 03:46:13;;;;;;;;;;;16.00;99.90;;;;;;5022964;28;19929;-75
2022/07/16 03:48:42;;;;;;;;;;;15.90;99.90;;;;;;5021475;28;19924;-75
2022/07/16 03:51:08;;;;;;;;;;;15.90;99.90;;;;;;5015662;28;19924;-75
2022/07/16 03:53:34;;;;;;;;;;;15.90;99.90;;;;;;4987675;28;19924;-74
2022/07/16 03:55:59;;;;;;;;;;;15.90;99.90;;;;;;5019540;28;19929;-74
2022/07/16 03:58:28;;;;;;;;;;;15.80;99.90;;;;;;5016445;28;19963;-74
2022/07/16 04:00:54;;;;;;;;;;;15.80;99.90;;;;;;5012406;28;20039;-73
2022/07/16 04:03:20;;;;;;;;;;;15.70;99.90;;;;;;5019788;28;19948;-74
2022/07/16 04:05:46;;;;;;;;;;;15.60;99.90;;;;;;5003314;28;19935;-75
2022/07/16 04:08:11;;;;;;;;;;;15.60;99.90;;;;;;5010819;28;19917;-74
2022/07/16 04:10:37;;;;;;;;;;;15.60;99.90;;;;;;5026856;28;20376;-75
2022/07/16 04:13:03;;;;;;;;;;;15.50;99.90;;;;;;5022938;28;20054;-74
2022/07/16 04:15:28;;;;;;;;;;;15.40;99.90;;;;;;5007105;28;20059;-74
2022/07/16 04:17:54;;;;;;;;;;;15.40;99.90;;;;;;5024802;28;19932;-74
2022/07/16 04:20:19;;;;;;;;;;;15.40;99.90;;;;;;5014689;28;19917;-73
2022/07/16 04:22:45;;;;;;;;;;;15.30;99.90;;;;;;5008160;28;19925;-75
2022/07/16 04:25:12;;;;;;;;;;;15.30;99.90;;;;;;5004451;28;19917;-74
2022/07/16 04:27:38;;;;;;;;;;;15.30;99.90;;;;;;5010563;28;19917;-75
2022/07/16 04:30:05;;;;;;;;;;;15.20;99.90;;;;;;5014270;28;19917;-75
2022/07/16 04:32:30;;;;;;;;;;;15.20;99.90;;;;;;5011114;28;19924;-76
2022/07/16 04:34:56;;;;;;;;;;;15.10;99.90;;;;;;5009925;28;19925;-74
2022/07/16 04:37:21;;;;;;;;;;;15.10;99.90;;;;;;5011332;28;20731;-75
2022/07/16 04:39:47;;;;;;;;;;;15.00;99.90;;;;;;5015649;28;19924;-73
2022/07/16 04:42:13;;;;;;;;;;;15.00;99.90;;;;;;5013594;28;19978;-74
2022/07/16 04:44:38;;;;;;;;;;;15.00;99.90;;;;;;5012841;28;20500;-74
2022/07/16 04:47:04;;;;;;;;;;;15.10;99.90;;;;;;5020726;28;19921;-74
2022/07/16 04:49:29;;;;;;;;;;;15.10;99.90;;;;;;5009337;28;19932;-74
2022/07/16 04:51:55;;;;;;;;;;;15.10;99.90;;;;;;5023174;28;20442;-73
2022/07/16 04:54:21;;;;;;;;;;;15.10;99.90;;;;;;5013557;28;19921;-74
2022/07/16 04:56:46;;;;;;;;;;;15.10;99.90;;;;;;5012667;28;19921;-74
2022/07/16 04:59:12;;;;;;;;;;;15.10;99.90;;;;;;5010641;28;20046;-74
2022/07/16 05:01:37;;;;;;;;;;;15.10;99.90;;;;;;5027790;28;20030;-72
2022/07/16 05:04:04;;;;;;;;;;;15.00;99.90;;;;;;5018286;28;19979;-74
2022/07/16 05:06:29;;;;;;;;;;;15.10;99.90;;;;;;5016712;28;19917;-74
2022/07/16 05:08:56;;;;;;;;;;;15.20;99.90;;;;;;5017781;28;19917;-74
2022/07/16 05:11:22;;;;;;;;;;;15.10;99.90;;;;;;5012017;28;21669;-74
2022/07/16 05:13:48;;;;;;;;;;;15.90;99.90;;;;;;5015613;28;19932;-74
2022/07/16 05:16:13;;;;;;;;;;;15.20;99.90;;;;;;5018122;28;19928;-74
2022/07/16 05:18:39;;;;;;;;;;;15.20;99.90;;;;;;4998516;28;19978;-74
2022/07/16 05:21:04;;;;;;;;;;;15.30;99.90;;;;;;5014787;28;19921;-74
2022/07/16 05:23:30;;;;;;;;;;;15.30;99.90;;;;;;5015615;28;20046;-74
2022/07/16 05:25:55;;;;;;;;;;;15.30;99.90;;;;;;5011385;28;19917;-74
2022/07/16 05:28:21;;;;;;;;;;;15.30;99.90;;;;;;5019153;28;19917;-75
2022/07/16 05:30:46;;;;;;;;;;;15.40;99.90;;;;;;4988947;28;20429;-74
2022/07/16 05:33:12;;;;;;;;;;;15.40;99.90;;;;;;5018673;28;19917;-73
2022/07/16 05:35:37;;;;;;;;;;;15.40;99.90;;;;;;5001362;28;20075;-74
2022/07/16 05:38:03;;;;;;;;;;;15.50;99.90;;;;;;5005288;28;20007;-74
2022/07/16 05:40:28;;;;;;;;;;;15.50;99.90;;;;;;5015907;28;19924;-74
2022/07/16 05:42:54;;;;;;;;;;;15.50;99.90;;;;;;4994264;28;19925;-75
2022/07/16 05:45:20;;;;;;;;;;;16.00;99.90;;;;;;5006551;28;19917;-74
2022/07/16 05:47:45;;;;;;;;;;;15.70;99.90;;;;;;5012832;28;19925;-74
2022/07/16 05:50:11;;;;;;;;;;;15.80;99.90;;;;;;5001319;28;19917;-72
2022/07/16 05:52:37;;;;;;;;;;;15.90;99.90;;;;;;5008245;28;20307;-74
2022/07/16 05:55:03;;;;;;;;;;;16.00;99.90;;;;;;5010540;28;19921;-74
2022/07/16 05:57:29;;;;;;;;;;;16.00;99.90;;;;;;5010935;28;19939;-74
2022/07/16 05:59:55;;;;;;;;;;;16.10;99.90;;;;;;5009466;28;19927;-74
2022/07/16 06:02:20;;;;;;;;;;;16.20;99.90;;;;;;5006876;28;19962;-73
2022/07/16 06:04:46;;;;;;;;;;;16.20;99.90;;;;;;5012470;28;19990;-75
2022/07/16 06:07:11;;;;;;;;;;;16.20;99.90;;;;;;5013794;28;19963;-74
2022/07/16 06:09:37;;;;;;;;;;;16.30;99.90;;;;;;5009715;28;19936;-74
2022/07/16 06:12:03;;;;;;;;;;;16.30;99.90;;;;;;5010853;28;19928;-72
2022/07/16 06:14:28;;;;;;;;;;;16.30;99.90;;;;;;5014847;28;19933;-74
2022/07/16 06:16:54;;;;;;;;;;;16.60;99.90;;;;;;5007187;28;19925;-74
2022/07/16 06:19:19;;;;;;;;;;;16.40;99.90;;;;;;5012851;28;19917;-73
2022/07/16 06:21:45;;;;;;;;;;;16.50;99.90;;;;;;4999686;28;19921;-74
2022/07/16 06:24:10;;;;;;;;;;;16.50;99.90;;;;;;5007954;28;19956;-74
2022/07/16 06:26:36;;;;;;;;;;;16.50;99.90;;;;;;5007615;28;19921;-74
2022/07/16 06:29:01;;;;;;;;;;;16.50;99.90;;;;;;5022825;28;20443;-73
2022/07/16 06:31:27;;;;;;;;;;;16.60;99.90;;;;;;5010269;28;20120;-75
2022/07/16 06:33:52;;;;;;;;;;;16.70;99.90;;;;;;5012475;28;20007;-74
2022/07/16 06:36:18;;;;;;;;;;;16.70;99.90;;;;;;5012808;28;20399;-74
2022/07/16 06:38:43;;;;;;;;;;;16.80;99.90;;;;;;5015005;28;19921;-74
2022/07/16 06:41:09;;;;;;;;;;;16.80;99.90;;;;;;5015499;28;19917;-74
2022/07/16 06:43:35;;;;;;;;;;;16.90;99.90;;;;;;5009451;28;19917;-74
2022/07/16 06:46:00;;;;;;;;;;;16.90;99.90;;;;;;5013567;28;19962;-73
2022/07/16 06:48:26;;;;;;;;;;;17.00;99.90;;;;;;5006598;28;20007;-74
2022/07/16 06:50:51;;;;;;;;;;;17.00;99.90;;;;;;4995855;28;20390;-74
2022/07/16 06:53:17;;;;;;;;;;;17.10;99.90;;;;;;5007878;28;19928;-74
2022/07/16 06:55:42;;;;;;;;;;;17.10;99.90;;;;;;5023911;28;19928;-74
2022/07/16 06:58:09;;;;;;;;;;;17.10;99.90;;;;;;5019659;28;19917;-74
2022/07/16 07:00:35;;;;;;;;;;;17.20;99.90;;;;;;5003759;28;19923;-74
2022/07/16 07:03:00;;;;;;;;;;;17.40;99.90;;;;;;5003579;28;19917;-74
2022/07/16 07:05:26;;;;;;;;;;;17.50;99.90;;;;;;5012609;28;19962;-73
2022/07/16 07:07:51;;;;;;;;;;;17.60;99.90;;;;;;5007811;28;19932;-74
2022/07/16 07:10:19;;;;;;;;;;;17.70;99.90;;;;;;5009201;28;20008;-73
2022/07/16 07:12:45;;;;;;;;;;;17.80;99.90;;;;;;4994760;28;20291;-72
2022/07/16 07:15:11;;;;;;;;;;;17.90;99.90;;;;;;5006325;28;20012;-74
2022/07/16 07:17:36;;;;;;;;;;;18.00;99.90;;;;;;5009868;28;20062;-72
2022/07/16 07:20:03;;;;;;;;;;;18.10;99.90;;;;;;5020796;28;20549;-73
2022/07/16 07:22:29;;;;;;;;;;;18.20;99.90;;;;;;5008927;28;19943;-74
2022/07/16 07:24:54;;;;;;;;;;;18.10;99.90;;;;;;5015524;28;19917;-75
2022/07/16 07:27:20;;;;;;;;;;;18.10;99.90;;;;;;5007870;28;19983;-78
2022/07/16 07:29:46;;;;;;;;;;;18.00;99.90;;;;;;4996471;28;20360;-77
2022/07/16 07:32:11;;;;;;;;;;;17.90;99.90;;;;;;4999679;28;19921;-78
2022/07/16 07:34:37;;;;;;;;;;;17.80;99.90;;;;;;5012696;28;20388;-78
2022/07/16 07:37:02;;;;;;;;;;;17.80;99.90;;;;;;5017705;28;19921;-78
2022/07/16 07:39:28;;;;;;;;;;;17.80;99.90;;;;;;5016325;28;19925;-78
2022/07/16 07:41:54;;;;;;;;;;;17.70;99.90;;;;;;5016365;28;19928;-78
2022/07/16 07:44:20;;;;;;;;;;;17.70;99.90;;;;;;5015220;28;21864;-77
2022/07/16 07:46:45;;;;;;;;;;;17.70;99.90;;;;;;5008284;28;19996;-77
2022/07/16 07:49:11;;;;;;;;;;;17.70;99.90;;;;;;5013703;28;19917;-77
2022/07/16 07:51:37;;;;;;;;;;;17.70;99.90;;;;;;5002367;28;21086;-78
2022/07/16 07:54:02;;;;;;;;;;;17.90;99.90;;;;;;4993180;28;20004;-77
2022/07/16 07:56:28;;;;;;;;;;;18.10;99.90;;;;;;5013637;28;20786;-77
2022/07/16 07:58:53;;;;;;;;;;;18.20;99.90;;;;;;4995581;28;19943;-77
2022/07/16 08:01:19;;;;;;;;;;;18.30;99.90;;;;;;5008832;28;19940;-77
2022/07/16 08:03:44;;;;;;;;;;;18.30;99.90;;;;;;5012120;28;20376;-77
2022/07/16 08:06:10;;;;;;;;;;;18.20;99.90;;;;;;5013220;28;20007;-77
2022/07/16 08:08:35;;;;;;;;;;;18.20;99.20;;;;;;5013808;28;20000;-77
2022/07/16 08:11:01;;;;;;;;;;;18.40;99.90;;;;;;5017678;28;20626;-77
2022/07/16 08:13:26;;;;;;;;;;;18.40;99.90;;;;;;4994363;28;19932;-77
2022/07/16 08:15:52;;;;;;;;;;;18.60;99.90;;;;;;5011261;28;20297;-77
2022/07/16 08:18:17;;;;;;;;;;;18.70;98.60;;;;;;5014959;28;19917;-77
2022/07/16 08:20:43;;;;;;;;;;;18.70;98.50;;;;;;5014591;28;20846;-75
2022/07/16 08:23:09;;;;;;;;;;;18.60;98.10;;;;;;5014304;28;19978;-79
2022/07/16 08:25:47;;;;;;;;;;;18.70;96.60;;;;;;4994300;28;19917;-78
2022/07/16 08:28:13;;;;;;;;;;;18.80;98.60;;;;;;5000005;28;19917;-78
2022/07/16 08:30:39;;;;;;;;;;;18.90;99.10;;;;;;5009283;28;19917;-77
2022/07/16 08:33:04;;;;;;;;;;;19.10;99.90;;;;;;5018032;28;19917;-78
2022/07/16 08:35:30;;;;;;;;;;;19.30;97.30;;;;;;5014242;28;19971;-77
2022/07/16 08:37:56;;;;;;;;;;;19.30;95.60;;;;;;5010069;28;19955;-77
2022/07/16 08:40:23;;;;;;;;;;;19.50;95.30;;;;;;5009494;28;19916;-78
2022/07/16 08:42:49;;;;;;;;;;;19.40;96.80;;;;;;5003766;28;19929;-78
2022/07/16 08:45:15;;;;;;;;;;;19.60;95.70;;;;;;4991779;28;20024;-78
2022/07/16 08:47:41;;;;;;;;;;;19.80;96.80;;;;;;5001205;28;19917;-78
2022/07/16 08:50:09;;;;;;;;;;;20.00;96.50;;;;;;5010527;28;19974;-78
2022/07/16 08:52:37;;;;;;;;;;;20.20;95.10;;;;;;5013568;28;20380;-78
2022/07/16 08:55:03;;;;;;;;;;;20.20;91.90;;;;;;5007174;28;19925;-78
2022/07/16 08:57:29;;;;;;;;;;;20.10;89.40;;;;;;5018086;28;19935;-76
2022/07/16 08:59:55;;;;;;;;;;;20.20;88.10;;;;;;4981145;28;20288;-77
2022/07/16 09:02:20;;;;;;;;;;;20.00;90.10;;;;;;5000999;28;19925;-78
2022/07/16 09:04:46;;;;;;;;;;;20.10;91.80;;;;;;5012864;28;19988;-77
2022/07/16 09:07:12;;;;;;;;;;;20.00;92.50;;;;;;5013528;28;20372;-78
2022/07/16 09:09:38;;;;;;;;;;;20.20;91.80;;;;;;5008186;28;20004;-77
2022/07/16 09:12:04;;;;;;;;;;;20.50;90.90;;;;;;5010673;28;19999;-77
2022/07/16 09:14:29;;;;;;;;;;;20.50;85.10;;;;;;5011427;28;19966;-76
2022/07/16 09:16:55;;;;;;;;;;;20.60;86.70;;;;;;4996365;28;20056;-77
2022/07/16 09:19:22;;;;;;;;;;;20.70;87.90;;;;;;5009442;28;19924;-76
2022/07/16 09:22:07;;;;;;;;;;;20.90;86.50;;;;;;5012481;28;20389;-77
2022/07/16 09:24:32;;;;;;;;;;;21.10;83.60;;;;;;5013413;28;19917;-77
2022/07/16 09:27:02;;;;;;;;;;;21.30;82.30;;;;;;5014980;28;19932;-77
2022/07/16 09:29:27;;;;;;;;;;;21.30;75.60;;;;;;4997653;28;19921;-77
2022/07/16 09:31:54;;;;;;;;;;;21.20;82.00;;;;;;5012386;28;20398;-76
2022/07/16 09:34:20;;;;;;;;;;;21.20;79.70;;;;;;5010916;28;20268;-76
2022/07/16 09:37:00;;;;;;;;;;;21.00;82.60;;;;;;5009672;28;19962;-76
2022/07/16 09:39:25;;;;;;;;;;;20.90;82.80;;;;;;5010967;28;20295;-77
2022/07/16 09:41:51;;;;;;;;;;;20.70;83.10;;;;;;5009192;28;19917;-76
2022/07/16 09:44:26;;;;;;;;;;;20.70;83.00;;;;;;5010002;28;19932;-76
2022/07/16 09:46:58;;;;;;;;;;;20.70;78.80;;;;;;5005204;28;19925;-76
2022/07/16 09:49:24;;;;;;;;;;;20.60;79.80;;;;;;5002802;28;19917;-77
2022/07/16 09:51:49;;;;;;;;;;;20.50;85.90;;;;;;5000581;28;19917;-76
2022/07/16 09:54:26;;;;;;;;;;;20.60;82.80;;;;;;5004986;28;19926;-77
2022/07/16 09:57:09;;;;;;;;;;;20.70;84.60;;;;;;5008136;28;19916;-77
2022/07/16 09:59:36;;;;;;;;;;;20.60;82.60;;;;;;5013188;28;19921;-76
2022/07/16 10:02:02;;;;;;;;;;;20.50;83.20;;;;;;5008293;28;19924;-76
2022/07/16 10:04:28;;;;;;;;;;;20.50;88.10;;;;;;5011253;28;19967;-77
2022/07/16 10:07:01;;;;;;;;;;;20.40;90.10;;;;;;5092736;27;19931;-76
2022/07/16 10:09:27;;;;;;;;;;;20.60;87.60;;;;;;5075428;28;19920;-77
2022/07/16 10:11:53;;;;;;;;;;;20.80;86.90;;;;;;5087292;28;19928;-77
2022/07/16 10:14:19;;;;;;;;;;;21.00;79.80;;;;;;5078371;28;19925;-78
2022/07/16 10:16:47;;;;;;;;;;;21.00;84.30;;;;;;5073791;28;19921;-77
2022/07/16 10:19:14;;;;;;;;;;;21.00;86.60;;;;;;5059960;28;20386;-75
2022/07/16 10:21:40;;;;;;;;;;;20.90;87.90;;;;;;5076348;28;19929;-76
2022/07/16 10:24:07;;;;;;;;;;;21.00;89.90;;;;;;5082886;28;19920;-76
2022/07/16 10:26:33;;;;;;;;;;;20.80;90.90;;;;;;5076990;28;19929;-76
2022/07/16 10:28:59;;;;;;;;;;;20.80;90.50;;;;;;5063319;28;19927;-76
2022/07/16 10:31:30;;;;;;;;;;;20.80;89.90;;;;;;5076418;28;19979;-76
2022/07/16 10:34:16;;;;;;;;;;;20.80;87.10;;;;;;5062636;28;19932;-76
2022/07/16 10:36:50;;;;;;;;;;;20.90;86.50;;;;;;5068037;28;19928;-76
2022/07/16 10:39:16;;;;;;;;;;;21.10;81.40;;;;;;5080015;28;19928;-75
2022/07/16 10:41:51;;;;;;;;;;;21.30;86.70;;;;;;5061776;28;19924;-76
2022/07/16 10:44:17;;;;;;;;;;;21.60;86.80;;;;;;5083426;28;19952;-76
2022/07/16 10:46:52;;;;;;;;;;;21.70;81.10;;;;;;5077294;28;19928;-75
2022/07/16 10:49:18;;;;;;;;;;;21.70;82.00;;;;;;5075476;28;19921;-76
2022/07/16 10:52:01;;;;;;;;;;;21.80;82.20;;;;;;5071792;28;20494;-76
2022/07/16 10:54:28;;;;;;;;;;;22.00;80.00;;;;;;5080578;28;19931;-77
2022/07/16 10:56:56;;;;;;;;;;;22.30;74.70;;;;;;5073935;28;19920;-76
2022/07/16 10:59:23;;;;;;;;;;;22.60;76.80;;;;;;5084113;28;20326;-76
2022/07/16 11:01:51;;;;;;;;;;;22.80;70.70;;;;;;5083179;28;19927;-76
2022/07/16 11:04:25;;;;;;;;;;;23.00;67.80;;;;;;5085615;28;19977;-76
2022/07/16 11:06:50;;;;;;;;;;;23.20;65.50;;;;;;5078322;28;19924;-76
2022/07/16 11:09:23;;;;;;;;;;;23.40;65.80;;;;;;5082098;28;19985;-76
2022/07/16 11:11:48;;;;;;;;;;;23.50;64.80;;;;;;5079564;28;19921;-76
2022/07/16 11:14:14;;;;;;;;;;;23.50;65.00;;;;;;5073924;28;19921;-77
2022/07/16 11:16:50;;;;;;;;;;;23.50;65.00;;;;;;5076024;28;19929;-77
2022/07/16 11:19:16;;;;;;;;;;;23.50;66.20;;;;;;5071537;28;19920;-77
2022/07/16 11:21:51;;;;;;;;;;;23.40;67.70;;;;;;5064487;28;19921;-77
2022/07/16 11:24:17;;;;;;;;;;;23.30;61.90;;;;;;5045690;28;20303;-77
2022/07/16 11:26:42;;;;;;;;;;;23.10;64.70;;;;;;5061182;28;19929;-78
2022/07/16 11:29:08;;;;;;;;;;;23.20;64.80;;;;;;5061809;28;19928;-77
2022/07/16 11:31:35;;;;;;;;;;;23.50;63.80;;;;;;5066800;28;19924;-78
2022/07/16 11:34:09;;;;;;;;;;;23.60;64.70;;;;;;5065257;28;19935;-77
2022/07/16 11:36:36;;;;;;;;;;;23.70;64.20;;;;;;5048881;28;20304;-78
2022/07/16 11:39:03;;;;;;;;;;;23.50;63.50;;;;;;5062585;28;20393;-73
2022/07/16 11:41:29;;;;;;;;;;;23.40;62.70;;;;;;5060456;28;19927;-74
2022/07/16 11:43:55;;;;;;;;;;;23.20;67.30;;;;;;5061485;28;19920;-74
2022/07/16 11:46:25;;;;;;;;;;;23.00;66.30;;;;;;5064182;28;19971;-77
2022/07/16 11:48:51;;;;;;;;;;;22.80;67.00;;;;;;5062400;28;19974;-76
2022/07/16 11:51:16;;;;;;;;;;;22.70;67.80;;;;;;5064928;28;19921;-77
2022/07/16 11:53:48;;;;;;;;;;;22.50;71.20;;;;;;5067236;28;19931;-77
2022/07/16 11:56:14;;;;;;;;;;;22.60;74.10;;;;;;5063586;28;20375;-76
2022/07/16 11:58:39;;;;;;;;;;;22.70;73.10;;;;;;5067038;28;19928;-77
2022/07/16 12:01:05;;;;;;;;;;;22.60;70.80;;;;;;5063967;28;19928;-78
2022/07/16 12:03:31;;;;;;;;;;;22.50;70.50;;;;;;5063317;28;20406;-77
2022/07/16 12:06:03;;;;;;;;;;;22.20;71.20;;;;;;5041609;28;20494;-77
2022/07/16 12:08:30;;;;;;;;;;;22.20;72.30;;;;;;5066876;28;19928;-77
2022/07/16 12:10:56;;;;;;;;;;;22.40;73.30;;;;;;5061359;28;20382;-76
2022/07/16 12:13:22;;;;;;;;;;;22.70;74.10;;;;;;5049820;28;20374;-77
2022/07/16 12:15:52;;;;;;;;;;;23.10;78.50;;;;;;5058838;28;19935;-77
2022/07/16 12:18:18;;;;;;;;;;;23.50;73.40;;;;;;5068676;28;20311;-77
2022/07/16 12:20:43;;;;;;;;;;;23.80;68.90;;;;;;5065295;28;19928;-78
2022/07/16 12:23:14;;;;;;;;;;;23.90;67.20;;;;;;5066057;28;19920;-76
2022/07/16 12:25:39;;;;;;;;;;;24.00;66.20;;;;;;5060720;28;19932;-76
2022/07/16 12:28:07;;;;;;;;;;;24.10;64.20;;;;;;5056104;28;19924;-77
2022/07/16 12:30:38;;;;;;;;;;;24.40;67.50;;;;;;5060195;28;19936;-77
2022/07/16 12:33:15;;;;;;;;;;;24.60;66.30;;;;;;5062583;28;19920;-77
2022/07/16 12:35:43;;;;;;;;;;;24.70;66.50;;;;;;5061158;28;20715;-77
2022/07/16 12:38:28;;;;;;;;;;;24.60;64.90;;;;;;5057311;28;19928;-77
2022/07/16 12:40:54;;;;;;;;;;;24.50;66.60;;;;;;5065841;28;20015;-77
2022/07/16 12:43:19;;;;;;;;;;;24.50;64.70;;;;;;5060464;28;20047;-76
2022/07/16 12:45:45;;;;;;;;;;;24.60;65.00;;;;;;5063082;28;19924;-77
2022/07/16 12:48:10;;;;;;;;;;;24.50;62.50;;;;;;5057524;28;20146;-76
2022/07/16 12:50:36;;;;;;;;;;;24.20;62.00;;;;;;5067201;28;19943;-76
2022/07/16 12:53:01;;;;;;;;;;;24.20;63.30;;;;;;5067766;28;20367;-77
2022/07/16 13:00:58;;;;;;;;;;;25.10;65.40;;;;;;5065875;28;19929;-76
2022/07/16 13:03:23;;;;;;;;;;;25.40;61.00;;;;;;5049444;28;19946;-77
2022/07/16 13:05:49;;;;;;;;;;;25.70;61.20;;;;;;5065771;28;20517;-76
2022/07/16 13:08:15;;;;;;;;;;;25.90;57.90;;;;;;5031552;28;19966;-75
2022/07/16 13:10:41;;;;;;;;;;;25.90;57.50;;;;;;5067556;28;19925;-77
2022/07/16 13:13:07;;;;;;;;;;;25.90;55.80;;;;;;5065790;28;20070;-77
2022/07/16 13:15:33;;;;;;;;;;;25.90;55.00;;;;;;5065170;28;19924;-76
2022/07/16 13:17:58;;;;;;;;;;;25.90;52.50;;;;;;5056472;28;20390;-77
2022/07/16 13:20:24;;;;;;;;;;;25.90;51.90;;;;;;5055816;28;19921;-76
2022/07/16 13:22:49;;;;;;;;;;;25.90;54.30;;;;;;5062503;28;20314;-76
2022/07/16 13:25:15;;;;;;;;;;;26.00;53.60;;;;;;5063867;28;19924;-76
2022/07/16 13:27:41;;;;;;;;;;;26.00;52.10;;;;;;5045262;28;19928;-76
2022/07/16 13:30:06;;;;;;;;;;;26.00;51.60;;;;;;5056530;28;19927;-76
2022/07/16 13:32:32;;;;;;;;;;;26.00;50.30;;;;;;5061284;28;21038;-76
2022/07/16 13:34:57;;;;;;;;;;;26.10;51.70;;;;;;5064266;28;20302;-76
2022/07/16 13:37:23;;;;;;;;;;;26.20;51.60;;;;;;5060348;28;19927;-76
2022/07/16 13:39:48;;;;;;;;;;;26.20;52.90;;;;;;5059832;28;20904;-76
2022/07/16 13:42:14;;;;;;;;;;;26.40;49.50;;;;;;5063334;28;19920;-76
2022/07/16 13:44:40;;;;;;;;;;;26.50;52.40;;;;;;5059068;28;19927;-77
2022/07/16 13:47:05;;;;;;;;;;;26.60;53.00;;;;;;5065189;28;19920;-76
2022/07/16 13:49:31;;;;;;;;;;;26.80;50.80;;;;;;5059194;28;19921;-76
2022/07/16 13:51:56;;;;;;;;;;;26.80;49.50;;;;;;5062176;28;19928;-76
2022/07/16 13:54:22;;;;;;;;;;;27.00;48.40;;;;;;5062920;28;20504;-77
2022/07/16 13:56:48;;;;;;;;;;;27.10;49.30;;;;;;5061612;28;19924;-77
2022/07/16 13:59:13;;;;;;;;;;;27.20;49.40;;;;;;5058901;28;19929;-77
2022/07/16 14:01:39;;;;;;;;;;;27.00;51.30;;;;;;5049330;28;19950;-77
2022/07/16 14:04:09;;;;;;;;;;;26.90;48.60;;;;;;5044949;28;19921;-76
2022/07/16 14:06:35;;;;;;;;;;;26.80;48.20;;;;;;5034438;28;19924;-77
2022/07/16 14:09:01;;;;;;;;;;;26.70;50.40;;;;;;5046942;28;19974;-77
2022/07/16 14:11:27;;;;;;;;;;;26.50;50.20;;;;;;5059752;28;19927;-77
2022/07/16 14:13:53;;;;;;;;;;;26.20;51.20;;;;;;5050039;28;19924;-75
2022/07/16 14:16:19;;;;;;;;;;;26.00;52.10;;;;;;5064135;28;20401;-77
2022/07/16 14:18:45;;;;;;;;;;;25.80;53.60;;;;;;5062339;28;20423;-76
2022/07/16 14:21:11;;;;;;;;;;;25.60;54.10;;;;;;5058256;28;19921;-76
2022/07/16 14:23:36;;;;;;;;;;;25.30;54.40;;;;;;5062978;28;19921;-77
2022/07/16 14:26:02;;;;;;;;;;;25.20;55.50;;;;;;5060215;28;19928;-77
2022/07/16 14:28:28;;;;;;;;;;;25.30;54.30;;;;;;5067035;28;19927;-78